createdAt,value
2019-03-19T00:02:07.524Z,95958.52
2019-03-19T00:04:34.783Z,95955.35
2019-03-19T00:07:02.116Z,95960.63
2019-03-19T00:09:29.448Z,95958.30
2019-03-19T00:11:57.910Z,95959.36
2019-03-19T00:14:25.403Z,95953.94
2019-03-19T00:16:52.763Z,95957.88
2019-03-19T00:19:22.461Z,95956.59
2019-03-19T00:21:49.384Z,95959.17
2019-03-19T00:24:16.671Z,95956.88
2019-03-19T00:26:44.023Z,95963.95
2019-03-19T00:29:11.343Z,95958.84
2019-03-19T00:31:38.684Z,95953.39
2019-03-19T00:34:05.984Z,95951.53
2019-03-19T00:36:33.305Z,95961.55
2019-03-19T00:39:00.663Z,95963.23
2019-03-19T00:41:28.003Z,95964.77
2019-03-19T00:43:55.343Z,95967.61
2019-03-19T00:46:22.631Z,95960.25
2019-03-19T00:48:49.948Z,95968.53
2019-03-19T00:51:17.247Z,95961.86
2019-03-19T00:53:44.583Z,95963.23
2019-03-19T00:56:11.874Z,95961.02
2019-03-19T00:58:39.151Z,95961.63
2019-03-19T01:01:06.473Z,95970.00
2019-03-19T01:03:33.778Z,95966.52
2019-03-19T01:06:01.091Z,95973.81
2019-03-19T01:08:28.426Z,95974.56
2019-03-19T01:10:56.164Z,95974.50
2019-03-19T01:13:23.547Z,95973.67
2019-03-19T01:15:50.857Z,95966.73
2019-03-19T01:18:18.131Z,95969.66
2019-03-19T01:20:45.464Z,95964.74
2019-03-19T01:23:12.771Z,95960.32
2019-03-19T01:25:54.439Z,95962.58
2019-03-19T01:28:09.373Z,95963.42
2019-03-19T01:30:36.716Z,95967.96
2019-03-19T01:33:04.064Z,95962.90
2019-03-19T01:35:31.384Z,95963.56
2019-03-19T01:37:58.723Z,95969.83
2019-03-19T01:40:26.036Z,95962.08
2019-03-19T01:42:53.319Z,95959.27
2019-03-19T01:45:20.665Z,95955.53
2019-03-19T01:47:47.968Z,95952.68
2019-03-19T01:50:15.389Z,95953.97
2019-03-19T01:52:42.678Z,95952.70
2019-03-19T01:55:10.009Z,95956.23
2019-03-19T01:57:37.294Z,95955.98
2019-03-19T02:00:05.361Z,95955.75
2019-03-19T02:02:32.718Z,95956.32
2019-03-19T02:04:59.990Z,95950.88
2019-03-19T02:07:27.372Z,95948.55
2019-03-19T02:09:54.703Z,95962.25
2019-03-19T02:12:22.024Z,95950.67
2019-03-19T02:14:49.296Z,95947.74
2019-03-19T02:17:16.659Z,95950.78
2019-03-19T02:19:44.066Z,95958.21
2019-03-19T02:22:11.360Z,95952.20
2019-03-19T02:24:38.643Z,95964.17
2019-03-19T02:27:05.983Z,95967.18
2019-03-19T02:29:33.283Z,95967.16
2019-03-19T02:32:00.565Z,95966.37
2019-03-19T02:34:27.919Z,95964.34
2019-03-19T02:36:55.224Z,95965.14
2019-03-19T02:39:22.564Z,95960.56
2019-03-19T02:41:50.344Z,95958.34
2019-03-19T02:44:17.689Z,95957.93
2019-03-19T02:46:45.164Z,95960.80
2019-03-19T02:49:12.445Z,95962.78
2019-03-19T02:51:39.784Z,95956.41
2019-03-19T02:54:07.063Z,95950.22
2019-03-19T02:56:34.404Z,95955.27
2019-03-19T02:59:01.698Z,95954.13
2019-03-19T03:01:29.038Z,95961.02
2019-03-19T03:03:56.352Z,95955.23
2019-03-19T03:06:23.633Z,95960.91
2019-03-19T03:08:50.945Z,95961.23
2019-03-19T03:11:18.232Z,95957.03
2019-03-19T03:13:45.558Z,95961.92
2019-03-19T03:16:12.860Z,95970.80
2019-03-19T03:18:40.166Z,95972.42
2019-03-19T03:21:07.455Z,95973.24
2019-03-19T03:23:34.734Z,95979.00
2019-03-19T03:26:01.978Z,95976.15
2019-03-19T03:28:29.295Z,95967.80
2019-03-19T03:30:56.642Z,95973.13
2019-03-19T03:33:23.945Z,95972.02
2019-03-19T03:35:51.201Z,95966.39
2019-03-19T03:38:18.473Z,95965.86
2019-03-19T03:40:45.762Z,95975.97
2019-03-19T03:43:13.073Z,95973.11
2019-03-19T03:45:40.410Z,95979.27
2019-03-19T03:48:07.682Z,95978.31
2019-03-19T03:50:35.000Z,95979.31
2019-03-19T03:53:02.318Z,95988.39
2019-03-19T03:55:31.259Z,95984.21
2019-03-19T03:57:58.736Z,95988.30
2019-03-19T04:00:26.014Z,95992.98
2019-03-19T04:02:53.393Z,95989.86
2019-03-19T04:05:20.719Z,95996.59
2019-03-19T04:07:48.051Z,95992.85
2019-03-19T04:10:15.403Z,95993.38
2019-03-19T04:12:42.659Z,95996.30
2019-03-19T04:15:10.629Z,95996.99
2019-03-19T04:17:37.881Z,95996.73
2019-03-19T04:20:07.036Z,95995.29
2019-03-19T04:22:34.320Z,95987.61
2019-03-19T04:25:01.723Z,95993.06
2019-03-19T04:27:28.956Z,95995.67
2019-03-19T04:29:56.249Z,95990.95
2019-03-19T04:32:23.554Z,95993.34
2019-03-19T04:34:50.856Z,95993.25
2019-03-19T04:37:18.160Z,95998.66
2019-03-19T04:39:45.436Z,95997.42
2019-03-19T04:42:12.754Z,96002.53
2019-03-19T04:44:40.034Z,96002.28
2019-03-19T04:47:07.422Z,95998.03
2019-03-19T04:49:34.705Z,96007.91
2019-03-19T04:52:01.933Z,95999.44
2019-03-19T04:54:29.251Z,96002.73
2019-03-19T04:56:56.531Z,96008.61
2019-03-19T04:59:23.839Z,96004.05
2019-03-19T05:01:51.091Z,96006.23
2019-03-19T05:04:18.370Z,96009.41
2019-03-19T05:06:45.656Z,96004.41
2019-03-19T05:09:13.019Z,96004.80
2019-03-19T05:11:40.289Z,96007.52
2019-03-19T05:14:07.593Z,96015.86
2019-03-19T05:16:34.936Z,96019.81
2019-03-19T05:19:02.231Z,96026.90
2019-03-19T05:21:29.571Z,96030.67
2019-03-19T05:23:56.880Z,96029.44
2019-03-19T05:26:24.167Z,96032.22
2019-03-19T05:28:51.461Z,96029.80
2019-03-19T05:31:18.731Z,96038.09
2019-03-19T05:33:46.055Z,96046.20
2019-03-19T05:36:13.384Z,96036.70
2019-03-19T05:38:41.252Z,96044.27
2019-03-19T05:41:08.511Z,96042.06
2019-03-19T05:43:35.871Z,96052.50
2019-03-19T05:46:03.179Z,96047.78
2019-03-19T05:48:30.519Z,96044.27
2019-03-19T05:50:57.832Z,96054.53
2019-03-19T05:53:25.101Z,96062.07
2019-03-19T05:55:52.480Z,96061.44
2019-03-19T05:58:19.771Z,96065.30
2019-03-19T06:00:47.058Z,96063.33
2019-03-19T06:03:14.423Z,96065.39
2019-03-19T06:05:41.707Z,96065.45
2019-03-19T06:08:09.075Z,96065.87
2019-03-19T06:10:36.396Z,96065.87
2019-03-19T06:13:03.871Z,96069.35
2019-03-19T06:15:31.143Z,96075.37
2019-03-19T06:17:58.493Z,96081.27
2019-03-19T06:20:25.776Z,96080.99
2019-03-19T06:22:53.103Z,96076.09
2019-03-19T06:25:20.433Z,96075.77
2019-03-19T06:27:47.703Z,96077.58
2019-03-19T06:30:16.126Z,96088.41
2019-03-19T06:32:43.443Z,96089.49
2019-03-19T06:35:10.786Z,96089.22
2019-03-19T06:37:38.102Z,96093.38
2019-03-19T06:40:06.385Z,96094.83
2019-03-19T06:42:33.658Z,96099.66
2019-03-19T06:45:00.971Z,96096.60
2019-03-19T06:47:28.396Z,96100.29
2019-03-19T06:49:55.702Z,96106.32
2019-03-19T06:52:23.023Z,96102.88
2019-03-19T06:54:50.325Z,96105.01
2019-03-19T06:57:17.664Z,96111.14
2019-03-19T06:59:44.963Z,96120.79
2019-03-19T07:02:12.293Z,96122.47
2019-03-19T07:04:39.589Z,96117.12
2019-03-19T07:07:06.903Z,96125.47
2019-03-19T07:09:34.284Z,96125.06
2019-03-19T07:12:01.825Z,96120.36
2019-03-19T07:14:29.352Z,96126.19
2019-03-19T07:16:56.664Z,96128.52
2019-03-19T07:19:23.974Z,96135.76
2019-03-19T07:21:51.264Z,96135.58
2019-03-19T07:24:18.599Z,96138.73
2019-03-19T07:26:45.895Z,96139.38
2019-03-19T07:29:13.216Z,96142.34
2019-03-19T07:31:40.523Z,96141.12
2019-03-19T07:34:07.771Z,96138.08
2019-03-19T07:36:35.083Z,96139.44
2019-03-19T07:39:04.054Z,96132.91
2019-03-19T07:41:31.355Z,96134.80
2019-03-19T07:43:58.643Z,96139.63
2019-03-19T07:46:25.983Z,96143.39
2019-03-19T07:48:53.307Z,96140.44
2019-03-19T07:51:20.640Z,96149.86
2019-03-19T07:53:47.959Z,96148.45
2019-03-19T07:56:15.273Z,96152.45
2019-03-19T07:58:45.481Z,96150.98
2019-03-19T08:01:11.788Z,96156.73
2019-03-19T08:03:39.103Z,96156.48
2019-03-19T08:06:06.387Z,96152.84
2019-03-19T08:08:33.679Z,96165.27
2019-03-19T08:11:00.998Z,96151.19
2019-03-19T08:13:28.323Z,96158.44
2019-03-19T08:15:55.623Z,96156.98
2019-03-19T08:18:22.976Z,96159.66
2019-03-19T08:20:50.351Z,96160.37
2019-03-19T08:23:17.655Z,96172.04
2019-03-19T08:25:44.997Z,96168.55
2019-03-19T08:28:12.365Z,96168.81
2019-03-19T08:30:39.705Z,96172.81
2019-03-19T08:33:07.078Z,96174.69
2019-03-19T08:35:34.513Z,96169.88
2019-03-19T08:38:01.845Z,96165.88
2019-03-19T08:40:29.182Z,96169.88
2019-03-19T08:42:58.281Z,96168.09
2019-03-19T08:45:25.935Z,96178.70
2019-03-19T08:47:53.380Z,96172.94
2019-03-19T08:50:20.803Z,96176.52
2019-03-19T08:52:50.488Z,96173.38
2019-03-19T08:55:17.819Z,96174.57
2019-03-19T08:57:45.096Z,96176.81
2019-03-19T09:00:14.844Z,96175.94
2019-03-19T09:02:42.103Z,96180.84
2019-03-19T09:05:09.906Z,96173.40
2019-03-19T09:07:37.215Z,96180.83
2019-03-19T09:10:05.414Z,96179.20
2019-03-19T09:12:32.747Z,96173.79
2019-03-19T09:15:00.171Z,96172.32
2019-03-19T09:17:27.564Z,96171.36
2019-03-19T09:19:54.903Z,96166.59
2019-03-19T09:22:22.921Z,96165.23
2019-03-19T09:24:50.555Z,96166.40
2019-03-19T09:27:17.878Z,96167.05
2019-03-19T09:29:45.117Z,96167.17
2019-03-19T09:32:12.423Z,96161.96
2019-03-19T09:34:39.744Z,96164.33
2019-03-19T09:37:07.078Z,96159.83
2019-03-19T09:39:34.415Z,96162.74
2019-03-19T09:42:01.746Z,96161.03
2019-03-19T09:44:29.050Z,96163.47
2019-03-19T09:46:56.383Z,96156.62
2019-03-19T09:49:23.710Z,96155.02
2019-03-19T09:51:51.083Z,96150.45
2019-03-19T09:54:18.425Z,96148.58
2019-03-19T09:56:45.753Z,96147.79
2019-03-19T09:59:13.123Z,96149.22
2019-03-19T10:01:40.480Z,96146.91
2019-03-19T10:04:07.864Z,96149.53
2019-03-19T10:06:35.158Z,96150.19
2019-03-19T10:09:04.461Z,96151.11
2019-03-19T10:11:31.779Z,96140.48
2019-03-19T10:13:59.103Z,96138.22
2019-03-19T10:16:26.447Z,96138.00
2019-03-19T10:18:53.845Z,96134.27
2019-03-19T10:21:21.663Z,96139.63
2019-03-19T10:23:48.995Z,96137.48
2019-03-19T10:26:16.290Z,96136.04
2019-03-19T10:28:43.687Z,96132.98
2019-03-19T10:31:11.042Z,96135.13
2019-03-19T10:33:38.403Z,96137.02
2019-03-19T10:36:05.703Z,96133.89
2019-03-19T10:38:33.031Z,96126.11
2019-03-19T10:41:00.337Z,96134.77
2019-03-19T10:43:27.643Z,96130.00
2019-03-19T10:45:54.996Z,96134.45
2019-03-19T10:48:22.297Z,96134.39
2019-03-19T10:50:49.624Z,96137.35
2019-03-19T10:53:17.013Z,96134.10
2019-03-19T10:55:44.423Z,96136.00
2019-03-19T10:58:11.696Z,96132.05
2019-03-19T11:00:38.984Z,96131.00
2019-03-19T11:03:06.858Z,96128.48
2019-03-19T11:05:34.183Z,96123.63
2019-03-19T11:08:01.524Z,96123.78
2019-03-19T11:10:28.890Z,96124.88
2019-03-19T11:12:56.184Z,96119.60
2019-03-19T11:15:23.489Z,96113.86
2019-03-19T11:17:50.824Z,96118.23
2019-03-19T11:20:18.168Z,96107.80
2019-03-19T11:22:45.566Z,96115.80
2019-03-19T11:25:14.266Z,96118.31
2019-03-19T11:27:41.655Z,96113.48
2019-03-19T11:30:14.908Z,96105.78
2019-03-19T11:32:42.230Z,96110.73
2019-03-19T11:35:10.665Z,96109.09
2019-03-19T11:37:37.965Z,96109.90
2019-03-19T11:40:05.532Z,96109.55
2019-03-19T11:42:32.975Z,96107.82
2019-03-19T11:45:00.298Z,96110.91
2019-03-19T11:47:27.649Z,96112.65
2019-03-19T11:49:55.142Z,96108.52
2019-03-19T11:52:22.510Z,96106.94
2019-03-19T11:54:49.923Z,96106.78
2019-03-19T11:57:17.262Z,96102.05
2019-03-19T11:59:44.623Z,96106.80
2019-03-19T12:02:11.944Z,96112.13
2019-03-19T12:04:39.224Z,96116.00
2019-03-19T12:07:06.624Z,96116.91
2019-03-19T12:09:33.996Z,96120.99
2019-03-19T12:12:01.344Z,96125.08
2019-03-19T12:14:28.675Z,96124.38
2019-03-19T12:16:56.009Z,96132.15
2019-03-19T12:19:23.373Z,96128.16
2019-03-19T12:21:50.743Z,96143.75
2019-03-19T12:24:18.084Z,96138.76
2019-03-19T12:26:45.371Z,96145.98
2019-03-19T12:29:12.791Z,96148.44
2019-03-19T12:31:40.110Z,96151.66
2019-03-19T12:34:07.433Z,96156.11
2019-03-19T12:36:34.732Z,96156.42
2019-03-19T12:39:02.212Z,96154.27
2019-03-19T12:41:29.559Z,96166.78
2019-03-19T12:43:56.858Z,96169.94
2019-03-19T12:46:24.184Z,96176.45
2019-03-19T12:48:54.210Z,96176.36
2019-03-19T12:51:20.825Z,96173.06
2019-03-19T12:53:48.231Z,96180.80
2019-03-19T12:56:15.534Z,96177.97
2019-03-19T12:58:42.821Z,96184.98
2019-03-19T13:01:10.413Z,96181.75
2019-03-19T13:03:37.718Z,96177.05
2019-03-19T13:06:05.084Z,96181.78
2019-03-19T13:08:32.396Z,96177.81
2019-03-19T13:10:59.724Z,96187.08
2019-03-19T13:13:27.016Z,96179.23
2019-03-19T13:15:54.304Z,96172.31
2019-03-19T13:18:21.646Z,96168.32
2019-03-19T13:20:48.926Z,96170.15
2019-03-19T13:23:16.279Z,96173.22
2019-03-19T13:25:43.600Z,96164.66
2019-03-19T13:28:10.968Z,96165.59
2019-03-19T13:30:44.925Z,96172.20
2019-03-19T13:33:07.503Z,96170.00
2019-03-19T13:35:34.830Z,96165.77
2019-03-19T13:38:02.139Z,96160.64
2019-03-19T13:40:29.450Z,96159.75
2019-03-19T13:42:56.803Z,96156.88
2019-03-19T13:45:24.105Z,96155.07
2019-03-19T13:47:51.542Z,96153.20
2019-03-19T13:50:18.858Z,96157.52
2019-03-19T13:52:46.268Z,96159.53
2019-03-19T13:55:14.463Z,96157.82
2019-03-19T13:57:41.844Z,96155.84
2019-03-19T14:00:11.084Z,96156.42
2019-03-19T14:02:39.021Z,96161.39
2019-03-19T14:05:07.207Z,96153.95
2019-03-19T14:07:34.553Z,96156.56
2019-03-19T14:10:02.063Z,96152.04
2019-03-19T14:12:29.871Z,96161.16
2019-03-19T14:14:57.233Z,96154.58
2019-03-19T14:17:25.055Z,96156.70
2019-03-19T14:19:52.401Z,96154.20
2019-03-19T14:22:19.793Z,96160.97
2019-03-19T14:24:47.168Z,96158.89
2019-03-19T14:27:14.586Z,96159.87
2019-03-19T14:29:41.998Z,96158.69
2019-03-19T14:32:09.405Z,96152.87
2019-03-19T14:34:36.744Z,96158.19
2019-03-19T14:37:04.121Z,96155.48
2019-03-19T14:39:31.440Z,96161.08
2019-03-19T14:41:58.828Z,96163.64
2019-03-19T14:44:26.203Z,96167.67
2019-03-19T14:46:53.499Z,96163.98
2019-03-19T14:49:22.167Z,96164.53
2019-03-19T14:51:49.523Z,96167.27
2019-03-19T14:54:16.864Z,96168.86
2019-03-19T14:56:44.595Z,96173.56
2019-03-19T14:59:13.492Z,96173.48
2019-03-19T15:01:41.316Z,96180.25
2019-03-19T15:04:08.517Z,96178.77
2019-03-19T15:06:36.132Z,96183.69
2019-03-19T15:09:08.560Z,96188.44
2019-03-19T15:11:36.125Z,96193.66
2019-03-19T15:14:03.649Z,96196.50
2019-03-19T15:16:31.604Z,96199.56
2019-03-19T15:19:00.273Z,96203.77
2019-03-19T15:21:27.953Z,96215.22
2019-03-19T15:23:55.705Z,96220.78
2019-03-19T15:26:23.359Z,96229.47
2019-03-19T15:28:50.947Z,96235.04
2019-03-19T15:31:18.665Z,96238.88
2019-03-19T15:33:46.335Z,96235.70
2019-03-19T15:36:13.960Z,96245.92
2019-03-19T15:38:41.605Z,96249.82
2019-03-19T15:41:09.060Z,96250.21
2019-03-19T15:43:36.593Z,96256.50
2019-03-19T15:46:04.251Z,96258.88
2019-03-19T15:48:31.688Z,96265.30
2019-03-19T15:50:59.270Z,96271.66
2019-03-19T15:53:27.747Z,96265.77
2019-03-19T15:55:55.304Z,96269.20
2019-03-19T15:58:22.845Z,96268.44
2019-03-19T16:00:50.340Z,96279.91
2019-03-19T16:03:17.835Z,96274.30
2019-03-19T16:05:45.536Z,96277.52
2019-03-19T16:08:13.246Z,96283.94
2019-03-19T16:10:40.651Z,96276.98
2019-03-19T16:13:08.160Z,96280.59
2019-03-19T16:15:35.703Z,96287.44
2019-03-19T16:18:03.266Z,96288.41
2019-03-19T16:20:30.799Z,96286.95
2019-03-19T16:22:58.431Z,96289.02
2019-03-19T16:25:25.966Z,96290.34
2019-03-19T16:27:53.567Z,96307.78
2019-03-19T16:30:21.384Z,96301.72
2019-03-19T16:32:49.262Z,96304.22
2019-03-19T16:35:16.938Z,96305.54
2019-03-19T16:37:44.599Z,96310.58
2019-03-19T16:40:14.872Z,96304.05
2019-03-19T16:42:42.618Z,96310.03
2019-03-19T16:45:10.251Z,96318.69
2019-03-19T16:47:37.902Z,96316.48
2019-03-19T16:50:06.091Z,96325.02
2019-03-19T16:52:33.688Z,96321.19
2019-03-19T16:55:01.308Z,96320.55
2019-03-19T16:57:28.991Z,96328.00
2019-03-19T16:59:56.604Z,96330.80
2019-03-19T17:02:24.257Z,96336.73
2019-03-19T17:04:51.928Z,96343.63
2019-03-19T17:07:19.428Z,96344.81
2019-03-19T17:09:47.052Z,96351.59
2019-03-19T17:12:14.700Z,96344.94
2019-03-19T17:14:42.460Z,96350.48
2019-03-19T17:17:11.691Z,96358.13
2019-03-19T17:19:40.334Z,96363.09
2019-03-19T17:22:08.006Z,96367.62
2019-03-19T17:24:35.650Z,96363.11
2019-03-19T17:27:03.892Z,96364.05
2019-03-19T17:29:31.685Z,96365.15
2019-03-19T17:31:59.325Z,96374.11
2019-03-19T17:34:27.496Z,96374.83
2019-03-19T17:36:56.430Z,96392.01
2019-03-19T17:39:24.097Z,96386.97
2019-03-19T17:41:52.220Z,96393.00
2019-03-19T17:44:19.881Z,96396.33
2019-03-19T17:46:47.520Z,96402.94
2019-03-19T17:49:15.189Z,96403.84
2019-03-19T17:51:42.900Z,96402.66
2019-03-19T17:54:10.938Z,96415.31
2019-03-19T17:56:38.666Z,96413.63
2019-03-19T17:59:06.320Z,96412.59
2019-03-19T18:01:35.985Z,96423.28
2019-03-19T18:04:06.643Z,96423.16
2019-03-19T18:06:34.279Z,96421.41
2019-03-19T18:09:02.004Z,96428.63
2019-03-19T18:11:29.923Z,96424.48
2019-03-19T18:13:57.810Z,96432.39
2019-03-19T18:16:25.471Z,96430.31
2019-03-19T18:18:53.062Z,96433.27
2019-03-19T18:21:20.708Z,96435.83
2019-03-19T18:23:48.361Z,96445.88
2019-03-19T18:26:16.102Z,96446.41
2019-03-19T18:28:43.936Z,96451.67
2019-03-19T18:31:11.588Z,96456.91
2019-03-19T18:33:39.374Z,96463.34
2019-03-19T18:36:07.023Z,96461.66
2019-03-19T18:38:34.708Z,96468.98
2019-03-19T18:41:02.478Z,96466.27
2019-03-19T18:43:30.309Z,96470.00
2019-03-19T18:45:57.949Z,96474.81
2019-03-19T18:48:25.599Z,96476.77
2019-03-19T18:50:53.498Z,96481.22
2019-03-19T18:53:21.322Z,96480.66
2019-03-19T18:55:49.485Z,96482.00
2019-03-19T18:58:17.199Z,96483.84
2019-03-19T19:00:45.213Z,96488.95
2019-03-19T19:03:13.786Z,96483.19
2019-03-19T19:05:42.812Z,96485.81
2019-03-19T19:08:10.892Z,96492.52
2019-03-19T19:10:39.122Z,96492.30
2019-03-19T19:13:06.785Z,96492.77
2019-03-19T19:15:35.112Z,96490.80
2019-03-19T19:18:04.706Z,96487.73
2019-03-19T19:20:34.533Z,96489.09
2019-03-19T19:23:03.053Z,96494.19
2019-03-19T19:25:30.979Z,96497.13
2019-03-19T19:28:00.176Z,96499.91
2019-03-19T19:30:28.542Z,96499.70
2019-03-19T19:33:01.948Z,96500.11
2019-03-19T19:35:26.267Z,96508.14
2019-03-19T19:37:54.419Z,96508.58
2019-03-19T19:40:22.332Z,96512.74
2019-03-19T19:42:50.141Z,96515.77
2019-03-19T19:45:18.175Z,96522.90
2019-03-19T19:47:46.039Z,96521.34
2019-03-19T19:50:14.356Z,96520.80
2019-03-19T19:52:42.428Z,96522.15
2019-03-19T19:55:10.685Z,96518.35
2019-03-19T19:57:39.150Z,96518.30
2019-03-19T20:00:10.758Z,96522.19
2019-03-19T20:02:38.662Z,96519.01
2019-03-19T20:05:08.267Z,96520.23
2019-03-19T20:07:35.974Z,96525.06
2019-03-19T20:10:04.958Z,96525.73
2019-03-19T20:12:32.839Z,96526.42
2019-03-19T20:15:00.978Z,96527.77
2019-03-19T20:17:29.395Z,96528.74
2019-03-19T20:19:57.425Z,96531.44
2019-03-19T20:22:25.131Z,96534.24
2019-03-19T20:24:52.771Z,96534.09
2019-03-19T20:27:20.431Z,96535.27
2019-03-19T20:29:48.146Z,96536.45
2019-03-19T20:32:16.315Z,96539.66
2019-03-19T20:34:44.370Z,96542.52
2019-03-19T20:37:12.240Z,96542.19
2019-03-19T20:39:40.122Z,96546.69
2019-03-19T20:42:07.887Z,96548.10
2019-03-19T20:44:35.631Z,96552.32
2019-03-19T20:47:05.130Z,96544.34
2019-03-19T20:49:32.875Z,96557.00
2019-03-19T20:52:00.679Z,96560.22
2019-03-19T20:54:29.879Z,96565.82
2019-03-19T20:56:57.636Z,96569.59
2019-03-19T20:59:25.307Z,96577.71
2019-03-19T21:01:53.304Z,96571.80
2019-03-19T21:04:21.060Z,96568.50
2019-03-19T21:06:51.263Z,96575.16
2019-03-19T21:09:18.946Z,96571.25
2019-03-19T21:11:46.639Z,96572.58
2019-03-19T21:14:14.332Z,96572.67
2019-03-19T21:16:42.139Z,96574.21
2019-03-19T21:19:11.121Z,96580.04
2019-03-19T21:21:38.765Z,96580.61
2019-03-19T21:24:06.623Z,96583.61
2019-03-19T21:26:34.386Z,96574.55
2019-03-19T21:29:05.012Z,96577.52
2019-03-19T21:31:32.823Z,96577.45
2019-03-19T21:34:00.622Z,96580.28
2019-03-19T21:36:28.334Z,96585.50
2019-03-19T21:38:55.990Z,96582.28
2019-03-19T21:41:23.618Z,96581.98
2019-03-19T21:43:51.199Z,96583.28
2019-03-19T21:46:18.861Z,96586.11
2019-03-19T21:48:46.346Z,96583.44
2019-03-19T21:51:13.894Z,96589.15
2019-03-19T21:53:41.505Z,96589.35
2019-03-19T21:56:09.262Z,96586.67
2019-03-19T21:58:36.690Z,96590.05
2019-03-19T22:01:04.351Z,96594.02
2019-03-19T22:03:31.797Z,96591.93
2019-03-19T22:05:59.243Z,96604.66
2019-03-19T22:08:26.719Z,96609.21
2019-03-19T22:10:54.122Z,96613.39
2019-03-19T22:13:21.499Z,96614.43
2019-03-19T22:15:48.898Z,96617.97
2019-03-19T22:18:16.228Z,96620.72
2019-03-19T22:20:43.559Z,96614.10
2019-03-19T22:23:10.857Z,96609.89
2019-03-19T22:25:38.242Z,96615.59
2019-03-19T22:28:05.573Z,96619.91
2019-03-19T22:30:32.992Z,96624.61
2019-03-19T22:33:00.331Z,96621.27
2019-03-19T22:35:27.708Z,96629.96
2019-03-19T22:37:55.386Z,96637.58
2019-03-19T22:40:22.727Z,96634.00
2019-03-19T22:42:50.077Z,96636.20
2019-03-19T22:45:17.413Z,96635.31
2019-03-19T22:47:44.705Z,96634.69
2019-03-19T22:50:12.832Z,96635.71
2019-03-19T22:52:40.226Z,96642.70
2019-03-19T22:55:07.726Z,96635.48
2019-03-19T22:57:35.111Z,96638.55
2019-03-19T23:00:02.703Z,96639.23
2019-03-19T23:02:30.073Z,96646.64
2019-03-19T23:04:57.384Z,96646.95
2019-03-19T23:07:26.986Z,96653.41
2019-03-19T23:09:54.309Z,96649.80
2019-03-19T23:12:21.655Z,96655.37
2019-03-19T23:14:48.953Z,96654.53
2019-03-19T23:17:16.284Z,96652.25
2019-03-19T23:19:43.610Z,96653.73
2019-03-19T23:22:10.960Z,96669.28
2019-03-19T23:24:38.331Z,96668.34
2019-03-19T23:27:05.757Z,96673.98
2019-03-19T23:29:33.103Z,96671.48
2019-03-19T23:32:00.427Z,96679.84
2019-03-19T23:34:37.918Z,96679.77
2019-03-19T23:36:56.971Z,96687.31
2019-03-19T23:39:24.304Z,96685.76
2019-03-19T23:41:51.683Z,96675.12
2019-03-19T23:44:19.042Z,96675.67
2019-03-19T23:46:46.391Z,96679.95
2019-03-19T23:49:13.791Z,96674.18
2019-03-19T23:51:41.124Z,96682.72
2019-03-19T23:54:08.428Z,96684.10
2019-03-19T23:56:35.802Z,96690.44
2019-03-19T23:59:03.165Z,96694.31
